Aérodrome :
LOGIN :

S'inscrire | Disclaimer

   EN    FR    IT 

 










Légende :    VFR   VFR Marginal   IFR   IFR Intensif   IFR Très Intensif
Visi : 
Plafond : 
>= 8 km
>= 3000ft
5 à 8 km
1000 à 3000 ft
1500m à 5 km
500 à 1000 ft
800 à 1500m
200 à 500 ft
< 800m
< 200 ft
Symboles :   Orages  Brouillard  Fortes neiges  Fortes précipitations  Vent > 20 kt
SIGMETs :   Divers  Orages  Givrage  Turbulence  Onde Orograph.  Cendres Volcan.







- Altitude de l'aérodrome : 375 ft
- Code IATA : MST


EHBK - Maastricht Aachen

DERNIER METAR :
  • 262325Z AUTO 12005KT 9999 NSC 21/15 Q1019

METARs EXPIRÉS :
  • 262255Z AUTO 09005KT 9999 NSC 21/15 Q1018
  • 262225Z AUTO 09005KT 9999 NSC 21/14 Q1018
  • 262155Z AUTO 08006KT 9999 NSC 22/14 Q1018
  • 262125Z AUTO 09007KT 050V120 9999 NSC 23/14 Q1018
  • 262055Z AUTO 08006KT 9999 NSC 23/14 Q1018

TAF TAF EHBK
Valide du 27 à 00h jusqu'au 28 à 06h UTC


262242Z 2700/2806 09005KT CAVOK
TEMPO 2711/2721 22010G20KT 4000 SHRA SCT060CB
PROB30
TEMPO 2713/2717 VRB15G35KT 1400 +TSRAGR BKN005 SCT050CB
PROB30 2721/2805 4000 BR MIFG
Pas de NOTAMs connus pour ce terrain.



MET'MAP, la Météo Aéronautique d'un coup d'oeil ! - Copyright ORBIFLY Décembre 2007 - Disclaimer

ORBIFLY MET'MAP TEAM :

Programmation & Développement : Alexandra Zaïnal
Conception & Développement : Baudouin d'Aumeries
Co-Programmation & Développement : Marc-Olivier Méhu
Soutien technique & logistique : Manuel Goepfert

Contact : metmap@orbifly.com




SOURCES & CREDITS :

   NOAA